Map

Track Data

SID SEASON NUMBER BASIN SUBBASIN NAME ISO_TIME NATURE LAT LON WMO_WIND WMO_PRES WMO_AGENCY TRACK_TYPE DIST2LAND LANDFALL IFLAG USA_AGENCY USA_ATCF_ID USA_LAT USA_LON USA_RECORD USA_STATUS USA_WIND USA_PRES USA_SSHS USA_R34_NE USA_R34_SE USA_R34_SW USA_R34_NW USA_R50_NE USA_R50_SE USA_R50_SW USA_R50_NW USA_R64_NE USA_R64_SE USA_R64_SW USA_R64_NW USA_POCI USA_ROCI USA_RMW USA_EYE TOKYO_LAT TOKYO_LON TOKYO_GRADE TOKYO_WIND TOKYO_PRES TOKYO_R50_DIR TOKYO_R50_LONG TOKYO_R50_SHORT TOKYO_R30_DIR TOKYO_R30_LONG TOKYO_R30_SHORT TOKYO_LAND CMA_LAT CMA_LON CMA_CAT CMA_WIND CMA_PRES HKO_LAT HKO_LON HKO_CAT HKO_WIND HKO_PRES NEWDELHI_LAT NEWDELHI_LON NEWDELHI_GRADE NEWDELHI_WIND NEWDELHI_PRES NEWDELHI_CI NEWDELHI_DP NEWDELHI_POCI REUNION_LAT REUNION_LON REUNION_TYPE REUNION_WIND REUNION_PRES REUNION_TNUM REUNION_CI REUNION_RMW REUNION_R34_NE REUNION_R34_SE REUNION_R34_SW REUNION_R34_NW REUNION_R50_NE REUNION_R50_SE REUNION_R50_SW REUNION_R50_NW REUNION_R64_NE REUNION_R64_SE REUNION_R64_SW REUNION_R64_NW BOM_LAT BOM_LON BOM_TYPE BOM_WIND BOM_PRES BOM_TNUM BOM_CI BOM_RMW BOM_R34_NE BOM_R34_SE BOM_R34_SW BOM_R34_NW BOM_R50_NE BOM_R50_SE BOM_R50_SW BOM_R50_NW BOM_R64_NE BOM_R64_SE BOM_R64_SW BOM_R64_NW BOM_ROCI BOM_POCI BOM_EYE BOM_POS_METHOD BOM_PRES_METHOD NADI_LAT NADI_LON NADI_CAT NADI_WIND NADI_PRES WELLINGTON_LAT WELLINGTON_LON WELLINGTON_WIND WELLINGTON_PRES DS824_LAT DS824_LON DS824_STAGE DS824_WIND DS824_PRES TD9636_LAT TD9636_LON TD9636_STAGE TD9636_WIND TD9636_PRES TD9635_LAT TD9635_LON TD9635_WIND TD9635_PRES TD9635_ROCI NEUMANN_LAT NEUMANN_LON NEUMANN_CLASS NEUMANN_WIND NEUMANN_PRES MLC_LAT MLC_LON MLC_CLASS MLC_WIND MLC_PRES USA_GUST BOM_GUST BOM_GUST_PER REUNION_GUST REUNION_GUST_PER USA_SEAHGT USA_SEARAD_NE USA_SEARAD_SE USA_SEARAD_SW USA_SEARAD_NW STORM_SPEED STORM_DIR
1942287N19283 1942 65 NA CS NOT_NAMED 1942-10-13 12:00:00 TS 19.4000 -76.9000 30 hurdat_atl main 56 22 O_____________ hurdat_atl AL101942 19.4000 -76.9000 TD 30 -1 9 33
1942287N19283 1942 65 NA CS NOT_NAMED 1942-10-13 15:00:00 TS 19.7876 -76.6353 main 22 0 P_____________ AL101942 19.7876 -76.6353 TD 30 -1 9 30
1942287N19283 1942 65 NA NA NOT_NAMED 1942-10-13 18:00:00 TS 20.2000 -76.4000 30 hurdat_atl main 0 0 O_____________ hurdat_atl AL101942 20.2000 -76.4000 TD 30 -1 10 24
1942287N19283 1942 65 NA NA NOT_NAMED 1942-10-13 21:00:00 TS 20.6625 -76.2199 main 0 0 P_____________ AL101942 20.6625 -76.2199 TD 30 -1 10 16
1942287N19283 1942 65 NA NA NOT_NAMED 1942-10-14 00:00:00 TS 21.2000 -76.1000 30 hurdat_atl main 10 10 O_____________ hurdat_atl AL101942 21.2000 -76.1000 TD 30 -1 12 9
1942287N19283 1942 65 NA NA NOT_NAMED 1942-10-14 03:00:00 TS 21.8350 -76.0274 main 70 70 P_____________ AL101942 21.8350 -76.0274 TD 32 -1 13 4
1942287N19283 1942 65 NA NA NOT_NAMED 1942-10-14 06:00:00 TS 22.5000 -76.0000 35 hurdat_atl main 144 144 O_____________ hurdat_atl AL101942 22.5000 -76.0000 TS 35 0 13 1
1942287N19283 1942 65 NA NA NOT_NAMED 1942-10-14 09:00:00 TS 23.1300 -75.9924 main 193 193 P_____________ AL101942 23.1300 -75.9924 TS 35 0 12 1
1942287N19283 1942 65 NA NA NOT_NAMED 1942-10-14 12:00:00 TS 23.7000 -76.0000 35 hurdat_atl main 194 175 O_____________ hurdat_atl AL101942 23.7000 -76.0000 TS 35 0 11 0
1942287N19283 1942 65 NA NA NOT_NAMED 1942-10-14 15:00:00 TS 24.2100 -76.0000 main 175 171 P_____________ AL101942 24.2100 -76.0000 TS 35 0 9 0
1942287N19283 1942 65 NA NA NOT_NAMED 1942-10-14 18:00:00 TS 24.6000 -76.0000 35 hurdat_atl main 172 172 O_____________ hurdat_atl AL101942 24.6000 -76.0000 TS 35 0 6 2
1942287N19283 1942 65 NA NA NOT_NAMED 1942-10-14 21:00:00 TS 24.8375 -75.9925 main 174 174 P_____________ AL101942 24.8375 -75.9925 TS 35 0 4 0
1942287N19283 1942 65 NA NA NOT_NAMED 1942-10-15 00:00:00 TS 25.0000 -76.0000 35 hurdat_atl main 180 180 O_____________ hurdat_atl AL101942 25.0000 -76.0000 TS 35 0 4 351
1942287N19283 1942 65 NA NA NOT_NAMED 1942-10-15 03:00:00 TS 25.1850 -76.0499 main 188 179 P_____________ AL101942 25.1850 -76.0499 TS 35 0 4 348
1942287N19283 1942 65 NA NA NOT_NAMED 1942-10-15 06:00:00 TS 25.4000 -76.1000 35 hurdat_atl main 188 188 O_____________ hurdat_atl AL101942 25.4000 -76.1000 TS 35 0 5 352
1942287N19283 1942 65 NA NA NOT_NAMED 1942-10-15 09:00:00 TS 25.6775 -76.1224 main 201 201 P_____________ AL101942 25.6775 -76.1224 TS 35 0 6 1
1942287N19283 1942 65 NA NA NOT_NAMED 1942-10-15 12:00:00 TS 26.0000 -76.1000 35 hurdat_atl main 215 215 O_____________ hurdat_atl AL101942 26.0000 -76.1000 TS 35 0 7 6
1942287N19283 1942 65 NA NA NOT_NAMED 1942-10-15 15:00:00 TS 26.3424 -76.0374 main 240 240 P_____________ AL101942 26.3424 -76.0374 TS 35 0 7 15
1942287N19283 1942 65 NA NA NOT_NAMED 1942-10-15 18:00:00 TS 26.7000 -75.9000 35 hurdat_atl main 275 275 O_____________ hurdat_atl AL101942 26.7000 -75.9000 TS 35 0 8 24
1942287N19283 1942 65 NA NA NOT_NAMED 1942-10-15 21:00:00 TS 27.0425 -75.6799 main 312 312 P_____________ AL101942 27.0425 -75.6799 TS 37 0 8 32
1942287N19283 1942 65 NA NA NOT_NAMED 1942-10-16 00:00:00 TS 27.4000 -75.4000 40 hurdat_atl main 364 364 O_____________ hurdat_atl AL101942 27.4000 -75.4000 TS 40 0 9 34
1942287N19283 1942 65 NA NA NOT_NAMED 1942-10-16 03:00:00 TS 27.7924 -75.1148 main 417 417 P_____________ AL101942 27.7924 -75.1148 TS 40 0 10 34
1942287N19283 1942 65 NA NA NOT_NAMED 1942-10-16 06:00:00 TS 28.2000 -74.8000 40 hurdat_atl main 469 469 O_____________ hurdat_atl AL101942 28.2000 -74.8000 TS 40 0 10 36
1942287N19283 1942 65 NA NA NOT_NAMED 1942-10-16 09:00:00 TS 28.5850 -74.4572 main 522 522 P_____________ AL101942 28.5850 -74.4572 TS 42 0 10 38
1942287N19283 1942 65 NA NA NOT_NAMED 1942-10-16 12:00:00 TS 29.0000 -74.1000 45 hurdat_atl main 581 581 O_____________ hurdat_atl AL101942 29.0000 -74.1000 TS 45 0 11 34
1942287N19283 1942 65 NA NA NOT_NAMED 1942-10-16 15:00:00 TS 29.4849 -73.7572 main 630 599 P_____________ AL101942 29.4849 -73.7572 TS 45 0 12 31
1942287N19283 1942 65 NA NA NOT_NAMED 1942-10-16 18:00:00 TS 30.0000 -73.4000 45 hurdat_atl main 599 571 O_____________ hurdat_atl AL101942 30.0000 -73.4000 TS 45 0 12 33
1942287N19283 1942 65 NA NA NOT_NAMED 1942-10-16 21:00:00 TS 30.5001 -72.9851 main 571 549 P_____________ AL101942 30.5001 -72.9851 TS 45 0 12 35
1942287N19283 1942 65 NA NA NOT_NAMED 1942-10-17 00:00:00 TS 31.0000 -72.6000 45 hurdat_atl main 549 528 O_____________ hurdat_atl AL101942 31.0000 -72.6000 TS 45 0 12 30
1942287N19283 1942 65 NA NA NOT_NAMED 1942-10-17 03:00:00 TS 31.4999 -72.3121 main 528 505 P_____________ AL101942 31.4999 -72.3121 TS 45 0 11 23
1942287N19283 1942 65 NA NA NOT_NAMED 1942-10-17 06:00:00 TS 32.0000 -72.1000 45 hurdat_atl main 505 478 O_____________ hurdat_atl AL101942 32.0000 -72.1000 TS 45 0 10 16
1942287N19283 1942 65 NA NA NOT_NAMED 1942-10-17 09:00:00 TS 32.4996 -71.9788 main 478 460 P_____________ AL101942 32.4996 -71.9788 TS 45 0 10 14
1942287N19283 1942 65 NA NA NOT_NAMED 1942-10-17 12:00:00 TS 33.0000 -71.8000 45 hurdat_atl main 460 446 O_____________ hurdat_atl AL101942 33.0000 -71.8000 TS 45 0 11 25
1942287N19283 1942 65 NA NA NOT_NAMED 1942-10-17 15:00:00 TS 33.4998 -71.4247 main 453 447 P_____________ AL101942 33.4998 -71.4247 TS 42 0 13 37
1942287N19283 1942 65 NA NA NOT_NAMED 1942-10-17 18:00:00 TS 34.0000 -70.9000 40 hurdat_atl main 464 464 O_____________ hurdat_atl AL101942 34.0000 -70.9000 TS 40 0 14 44
1942287N19283 1942 65 NA NA NOT_NAMED 1942-10-17 21:00:00 TS 34.5001 -70.2797 main 493 493 P_____________ AL101942 34.5001 -70.2797 TS 40 0 15 47
1942287N19283 1942 65 NA NA NOT_NAMED 1942-10-18 00:00:00 TS 35.0000 -69.6000 40 hurdat_atl main 540 540 O_____________ hurdat_atl AL101942 35.0000 -69.6000 TS 40 0 15 47
1942287N19283 1942 65 NA NA NOT_NAMED 1942-10-18 03:00:00 TS 35.4996 -68.9492 main 595 594 P_____________ AL101942 35.4996 -68.9492 TS 37 0 15 47
1942287N19283 1942 65 NA NA NOT_NAMED 1942-10-18 06:00:00 TS 36.0000 -68.3000 35 hurdat_atl main 646 611 O_____________ hurdat_atl AL101942 36.0000 -68.3000 TS 35 0 15 47
1942287N19283 1942 65 NA NA NOT_NAMED 1942-10-18 09:00:00 TS 36.5000 -67.6271 main 614 582 P_____________ AL101942 36.5000 -67.6271 TS 35 0 14 46
1942287N19283 1942 65 NA NA NOT_NAMED 1942-10-18 12:00:00 TS 37.0000 -67.0000 35 hurdat_atl main 582 554 O_____________ hurdat_atl AL101942 37.0000 -67.0000 TS 35 0 14 43
1942287N19283 1942 65 NA NA NOT_NAMED 1942-10-18 15:00:00 TS 37.5001 -66.4709 main 554 534 P_____________ AL101942 37.5001 -66.4709 TS 35 0 13 38
1942287N19283 1942 65 NA NA NOT_NAMED 1942-10-18 18:00:00 ET 38.0000 -66.0000 35 hurdat_atl main 534 O_____________ hurdat_atl AL101942 38.0000 -66.0000 EX 35 -4 12 37

About IBTrACS Database

This database is a web-friendly format of International Best Track Archive for Climate Stewardship (IBTrACS), a global best track data archive curated by NOAA dating back to 1842.

Updated: 2021-12-08